createdAt,value
2023-08-04T00:02:21.754Z,100770.75
2023-08-04T00:07:23.685Z,100785.31
2023-08-04T00:12:26.951Z,100794.44
2023-08-04T00:17:30.977Z,100785.75
2023-08-04T00:22:36.024Z,100793.63
2023-08-04T00:27:40.094Z,100794.91
2023-08-04T00:32:44.167Z,100795.59
2023-08-04T00:37:45.906Z,100806.16
2023-08-04T00:42:50.621Z,100798.91
2023-08-04T00:47:55.599Z,100799.72
2023-08-04T00:52:59.887Z,100815.13
2023-08-04T00:58:01.685Z,100816.16
2023-08-04T01:03:06.503Z,100814.94
2023-08-04T01:08:18.628Z,100807.69
2023-08-04T01:13:23.210Z,100805.41
2023-08-04T01:18:28.025Z,100808.13
2023-08-04T01:23:29.803Z,100806.69
2023-08-04T01:28:34.815Z,100804.19
2023-08-04T01:33:36.664Z,100810.66
2023-08-04T01:38:38.417Z,100807.97
2023-08-04T01:43:40.110Z,100815.25
2023-08-04T01:48:41.836Z,100804.06
2023-08-04T01:53:43.536Z,100806.97
2023-08-04T01:58:50.072Z,100816.97
2023-08-04T02:03:54.061Z,100816.13
2023-08-04T02:08:55.822Z,100829.03
2023-08-04T02:14:01.364Z,100822.81
2023-08-04T02:19:10.602Z,100829.25
2023-08-04T02:24:14.458Z,100834.28
2023-08-04T02:29:18.438Z,100840.06
2023-08-04T02:34:23.636Z,100841.34
2023-08-04T02:39:27.656Z,100837.00
2023-08-04T02:44:31.597Z,100840.13
2023-08-04T02:49:39.962Z,100837.28
2023-08-04T02:54:43.589Z,100838.16
2023-08-04T02:59:45.344Z,100845.03
2023-08-04T03:04:54.166Z,100856.28
2023-08-04T03:09:58.240Z,100861.91
2023-08-04T03:15:05.669Z,100873.50
2023-08-04T03:20:10.509Z,100869.38
2023-08-04T03:25:18.217Z,100879.72
2023-08-04T03:30:19.953Z,100894.50
2023-08-04T03:35:21.793Z,100890.38
2023-08-04T03:40:25.890Z,100901.78
2023-08-04T03:45:27.702Z,100910.69
2023-08-04T03:50:29.508Z,100903.47
2023-08-04T03:55:31.375Z,100914.25
2023-08-04T04:00:35.351Z,100926.25
2023-08-04T04:05:39.824Z,100926.03
2023-08-04T04:10:43.884Z,100926.84
2023-08-04T04:15:45.985Z,100930.41
2023-08-04T04:20:47.790Z,100945.59
2023-08-04T04:25:51.260Z,100941.66
2023-08-04T04:30:52.994Z,100957.69
2023-08-04T04:35:54.743Z,100947.97
2023-08-04T04:41:02.270Z,100958.16
2023-08-04T04:46:04.696Z,100969.41
2023-08-04T04:51:11.198Z,100971.69
2023-08-04T04:56:15.415Z,100975.81
2023-08-04T05:01:17.238Z,100977.28
2023-08-04T05:06:18.958Z,100988.47
2023-08-04T05:11:23.153Z,100990.91
2023-08-04T05:16:25.237Z,100991.31
2023-08-04T05:21:27.073Z,101003.56
2023-08-04T05:26:31.517Z,100984.00
2023-08-04T05:31:33.926Z,100995.38
2023-08-04T05:36:35.648Z,101006.34
2023-08-04T05:41:40.424Z,101016.50
2023-08-04T05:46:44.447Z,101025.66
2023-08-04T05:51:47.359Z,101031.06
2023-08-04T05:56:49.519Z,101031.25
2023-08-04T06:01:54.512Z,101041.66
2023-08-04T06:06:58.623Z,101041.19
2023-08-04T06:12:00.403Z,101044.47
2023-08-04T06:17:06.986Z,101046.50
2023-08-04T06:22:11.517Z,101059.56
2023-08-04T06:27:13.376Z,101063.09
2023-08-04T06:32:15.083Z,101068.81
2023-08-04T06:37:21.151Z,101068.19
2023-08-04T06:42:25.175Z,101062.47
2023-08-04T06:47:26.993Z,101075.16
2023-08-04T06:52:28.907Z,101071.59
2023-08-04T06:57:30.677Z,101081.13
2023-08-04T07:02:33.075Z,101093.59
2023-08-04T07:07:35.057Z,101106.28
2023-08-04T07:12:41.296Z,101106.28
2023-08-04T07:17:43.483Z,101103.75
2023-08-04T07:22:45.353Z,101112.69
2023-08-04T07:27:51.636Z,101122.28
2023-08-04T07:32:55.741Z,101118.81
2023-08-04T07:37:59.838Z,101124.44
2023-08-04T07:43:06.044Z,101122.94
2023-08-04T07:48:08.079Z,101128.31
2023-08-04T07:53:10.034Z,101138.56
2023-08-04T07:58:14.111Z,101146.91
2023-08-04T08:03:18.046Z,101141.88
2023-08-04T08:08:22.082Z,101138.66
2023-08-04T08:13:30.089Z,101144.47
2023-08-04T08:18:31.908Z,101161.47
2023-08-04T08:23:34.134Z,101155.22
2023-08-04T08:28:38.735Z,101159.34
2023-08-04T08:33:40.504Z,101157.00
2023-08-04T08:38:42.452Z,101166.13
2023-08-04T08:43:48.860Z,101164.06
2023-08-04T08:48:51.131Z,101175.41
2023-08-04T08:53:55.881Z,101168.66
2023-08-04T08:58:59.907Z,101178.34
2023-08-04T09:04:12.478Z,101175.53
2023-08-04T09:09:14.593Z,101177.50
2023-08-04T09:14:19.253Z,101181.22
2023-08-04T09:19:25.085Z,101181.25
2023-08-04T09:24:27.136Z,101197.06
2023-08-04T09:29:33.488Z,101194.13
2023-08-04T09:34:35.261Z,101204.09
2023-08-04T09:39:47.722Z,101203.66
2023-08-04T09:44:56.933Z,101204.38
2023-08-04T09:49:59.847Z,101205.44
2023-08-04T09:55:09.937Z,101207.59
2023-08-04T10:00:17.583Z,101209.75
2023-08-04T10:05:24.928Z,101211.22
2023-08-04T10:10:26.800Z,101218.00
2023-08-04T10:15:28.937Z,101214.91
2023-08-04T10:20:37.030Z,101217.19
2023-08-04T10:25:38.925Z,101224.78
2023-08-04T10:36:10.227Z,101218.19
2023-08-04T10:41:15.941Z,101216.31
2023-08-04T10:46:18.121Z,101223.06
2023-08-04T10:51:26.681Z,101227.47
2023-08-04T10:56:40.912Z,101218.13
2023-08-04T11:01:47.959Z,101231.59
2023-08-04T11:06:52.510Z,101234.59
2023-08-04T11:11:59.978Z,101244.06
2023-08-04T11:17:03.288Z,101240.13
2023-08-04T11:22:16.559Z,101245.63
2023-08-04T11:27:23.122Z,101252.75
2023-08-04T11:32:26.286Z,101257.72
2023-08-04T11:37:28.336Z,101264.84
2023-08-04T11:42:35.963Z,101271.69
2023-08-04T11:47:42.206Z,101275.81
2023-08-04T11:52:47.487Z,101282.28
2023-08-04T11:57:49.931Z,101275.78
2023-08-04T12:03:02.349Z,101273.41
2023-08-04T12:08:13.315Z,101285.50
2023-08-04T12:13:36.941Z,101290.34
2023-08-04T12:18:40.379Z,101295.53
2023-08-04T12:23:51.443Z,101313.50
2023-08-04T12:28:53.379Z,101313.75
2023-08-04T12:34:00.501Z,101315.41
2023-08-04T12:39:06.123Z,101318.59
2023-08-04T12:44:08.394Z,101322.09
2023-08-04T12:49:10.362Z,101323.78
2023-08-04T12:54:12.276Z,101329.69
2023-08-04T12:59:16.445Z,101339.91
2023-08-04T13:04:23.019Z,101347.69
2023-08-04T13:09:24.951Z,101353.78
2023-08-04T13:14:28.721Z,101361.75
2023-08-04T13:19:34.872Z,101361.84
2023-08-04T13:24:36.710Z,101365.69
2023-08-04T13:29:39.532Z,101370.50
2023-08-04T13:34:41.464Z,101381.22
2023-08-04T13:39:43.319Z,101363.41
2023-08-04T13:44:47.637Z,101375.34
2023-08-04T13:49:49.422Z,101382.50
2023-08-04T13:54:53.440Z,101396.31
2023-08-04T13:59:57.660Z,101403.41
2023-08-04T14:05:02.348Z,101412.41
2023-08-04T14:10:08.377Z,101418.59
2023-08-04T14:15:10.444Z,101422.66
2023-08-04T14:20:15.610Z,101433.81
2023-08-04T14:25:17.674Z,101421.75
2023-08-04T14:30:19.491Z,101433.03
2023-08-04T14:35:21.303Z,101427.41
2023-08-04T14:40:25.284Z,101439.69
2023-08-04T14:45:27.009Z,101432.28
2023-08-04T14:50:28.812Z,101441.72
2023-08-04T14:55:30.547Z,101455.00
2023-08-04T15:00:37.333Z,101451.75
2023-08-04T15:05:39.261Z,101458.97
2023-08-04T15:10:43.595Z,101459.25
2023-08-04T15:15:48.341Z,101474.56
2023-08-04T15:20:52.717Z,101470.75
2023-08-04T15:25:55.907Z,101473.19
2023-08-04T15:31:09.497Z,101473.03
2023-08-04T15:36:15.765Z,101470.13
2023-08-04T15:41:17.505Z,101465.50
2023-08-04T15:46:19.553Z,101462.56
2023-08-04T15:51:21.625Z,101465.84
2023-08-04T15:56:26.110Z,101476.44
2023-08-04T16:01:27.880Z,101462.09
2023-08-04T16:06:29.674Z,101477.88
2023-08-04T16:11:34.630Z,101480.41
2023-08-04T16:16:40.962Z,101474.06
2023-08-04T16:21:44.983Z,101483.94
2023-08-04T16:26:49.471Z,101481.84
2023-08-04T16:31:51.541Z,101481.25
2023-08-04T16:36:53.365Z,101484.53
2023-08-04T16:41:57.331Z,101490.38
2023-08-04T16:47:03.988Z,101503.75
2023-08-04T16:52:06.313Z,101503.53
2023-08-04T16:57:08.075Z,101507.78
2023-08-04T17:02:09.853Z,101511.56
2023-08-04T17:07:14.530Z,101516.09
2023-08-04T17:12:16.428Z,101516.69
2023-08-04T17:17:18.853Z,101529.88
2023-08-04T17:22:23.048Z,101525.34
2023-08-04T17:27:25.168Z,101526.34
2023-08-04T17:32:31.344Z,101529.00
2023-08-04T17:37:37.562Z,101540.41
2023-08-04T17:42:41.460Z,101547.97
2023-08-04T17:47:45.239Z,101536.94
2023-08-04T17:52:47.029Z,101542.78
2023-08-04T17:57:51.168Z,101553.09
2023-08-04T18:02:55.358Z,101562.59
2023-08-04T18:07:57.168Z,101563.88
2023-08-04T18:13:03.893Z,101569.59
2023-08-04T18:18:07.792Z,101564.91
2023-08-04T18:23:11.981Z,101574.69
2023-08-04T18:28:13.663Z,101578.75
2023-08-04T18:33:15.425Z,101582.81
2023-08-04T18:38:22.627Z,101580.56
2023-08-04T18:43:26.852Z,101584.19
2023-08-04T18:48:31.439Z,101591.06
2023-08-04T18:53:39.393Z,101596.53
2023-08-04T18:58:41.171Z,101603.66
2023-08-04T19:03:47.468Z,101611.03
2023-08-04T19:08:51.510Z,101607.28
2023-08-04T19:13:55.449Z,101606.28
2023-08-04T19:18:57.577Z,101610.31
2023-08-04T19:23:59.407Z,101624.50
2023-08-04T19:29:01.667Z,101631.78
2023-08-04T19:34:03.372Z,101629.13
2023-08-04T19:39:05.431Z,101632.94
2023-08-04T19:44:07.206Z,101631.91
2023-08-04T19:49:11.810Z,101637.78
2023-08-04T19:54:13.579Z,101640.91
2023-08-04T19:59:19.758Z,101639.03
2023-08-04T20:04:23.691Z,101651.97
2023-08-04T20:09:27.791Z,101646.81
2023-08-04T20:14:29.503Z,101653.44
2023-08-04T20:19:36.118Z,101648.03
2023-08-04T20:24:37.925Z,101658.25
2023-08-04T20:29:44.058Z,101658.06
2023-08-04T20:34:48.534Z,101669.75
2023-08-04T20:39:53.394Z,101666.59
2023-08-04T20:44:55.364Z,101666.84
2023-08-04T20:49:57.339Z,101675.34
2023-08-04T20:55:03.929Z,101678.47
2023-08-04T21:00:06.543Z,101673.25
2023-08-04T21:05:10.510Z,101684.69
2023-08-04T21:10:12.211Z,101680.06
2023-08-04T21:15:13.946Z,101673.19
2023-08-04T21:20:17.376Z,101670.47
2023-08-04T21:25:19.359Z,101671.06
2023-08-04T21:30:22.870Z,101669.78
2023-08-04T21:35:24.645Z,101679.75
2023-08-04T21:40:26.709Z,101680.56
2023-08-04T21:45:28.688Z,101678.63
2023-08-04T21:50:33.756Z,101687.09
2023-08-04T21:55:35.464Z,101677.97
2023-08-04T22:00:37.227Z,101683.19
2023-08-04T22:05:41.282Z,101682.34
2023-08-04T22:10:45.266Z,101680.25
2023-08-04T22:15:47.129Z,101680.25
2023-08-04T22:20:59.684Z,101681.09
2023-08-04T22:26:03.126Z,101689.59
2023-08-04T22:31:05.472Z,101692.69
2023-08-04T22:36:07.352Z,101691.00
2023-08-04T22:41:09.260Z,101697.06
2023-08-04T22:46:11.582Z,101691.66
2023-08-04T22:51:18.657Z,101688.53
2023-08-04T22:56:25.732Z,101678.31
2023-08-04T23:01:27.460Z,101678.72
2023-08-04T23:06:31.710Z,101677.44
2023-08-04T23:11:33.413Z,101671.63
2023-08-04T23:16:35.538Z,101668.06
2023-08-04T23:21:37.353Z,101671.00
2023-08-04T23:26:39.062Z,101679.06
2023-08-04T23:31:43.918Z,101678.00
2023-08-04T23:36:48.715Z,101663.28
2023-08-04T23:41:51.096Z,101661.19
2023-08-04T23:46:55.230Z,101650.16
2023-08-04T23:52:01.523Z,101651.72
2023-08-04T23:57:03.473Z,101660.66
